MSC Alexa — 3FPP6 — position and weather

sailwx.info

Track history (hours):
 
Tides and Currents Weather Stations Pressure Air Temp Water Temp Dewpoint Dewpoint Depression Visibility Wind Speed Wind Dir Waves Ship Positions

MSC Alexa

Last reported at 2016-Sep-26 15:33 UTC. Time now 2016-Sep-26 22:29 UTC.
Position N 55°24' E 014°40'.

Length 243 m; draft 9.9 m.

Type: Ship (hazmat cat A). MMSI: 356904000.

Date/timePositionNaut miles runAvg speedWind from/ knotsBaromVisibWave heightAir tempDewpointWater temp
2016-Sep-26 15:33N 55°24' E 014°40'3417.1
2016-Sep-26 13:33N 54°60' E 013°57'3417.2
2016-Sep-26 11:33N 54°49' E 013°00'4816.1
2016-Sep-26 08:33N 54°24' E 011°49'9012.7
2016-Sep-26 01:28N 55°48' E 010°48'1415.5
2016-Sep-26 00:33N 55°60' E 011°02'4916.2
2016-Sep-25 21:33N 56°41' E 011°48'6215.6
2016-Sep-25 17:33N 57°38' E 011°03'1616.4
2016-Sep-25 16:33N 57°48' E 010°38'1918.4
2016-Sep-25 15:33N 57°44' E 010°03'10217.0
2016-Sep-25 09:33N 56°43' E 007°32'3618.1
2016-Sep-25 07:33N 56°09' E 007°09'5417.8
2016-Sep-25 04:33N 55°19' E 006°37'6616.6
2016-Sep-25 00:33N 54°18' E 007°23'3215.8
2016-Sep-24 22:33N 53°52' E 007°53'1515.2
2016-Sep-24 21:33N 53°44' E 008°15'14 6.7
2016-Sep-24 19:31N 53°35' E 008°32'0 0.0
2016-Sep-24 18:31N 53°35' E 008°32'0 0.0
2016-Sep-24 17:33N 53°35' E 008°32'0 0.0
2016-Sep-24 16:33N 53°35' E 008°32'0 0.0
2016-Sep-24 14:32N 53°35' E 008°32'0 0.0
2016-Sep-24 12:31N 53°35' E 008°32'0 0.0
2016-Sep-24 10:33N 53°35' E 008°32'0 0.0
2016-Sep-24 09:33N 53°35' E 008°32'39 6.5
2016-Sep-24 03:33N 53°54' E 007°35'1313.3
2016-Sep-24 02:33N 53°52' E 007°13'1615.6
2016-Sep-24 01:33N 53°49' E 006°47'1717.1
2016-Sep-24 00:33N 53°45' E 006°19'8316.6
2016-Sep-23 19:33N 53°00' E 004°21'3718.6
2016-Sep-23 17:33N 52°27' E 003°52'1817.9
2016-Sep-23 16:32N 52°13' E 003°33'2117.0
2016-Sep-23 15:19N 51°54' E 003°21'2413.7
2016-Sep-23 13:33N 51°32' E 003°06'37 9.2
2016-Sep-23 09:33N 51°23' E 004°03'9 3.0
2016-Sep-23 06:32N 51°17' E 004°15'0 0.0
2016-Sep-23 04:31N 51°17' E 004°15'0 0.0
2016-Sep-23 03:31N 51°17' E 004°15'0 0.0
2016-Sep-23 02:33N 51°17' E 004°15'0 0.0
2016-Sep-23 01:33N 51°17' E 004°15'0 0.0
2016-Sep-23 00:29N 51°17' E 004°15'0 0.0
2016-Sep-22 23:32N 51°17' E 004°15'0 0.0
2016-Sep-22 20:31N 51°17' E 004°15'4 0.5
2016-Sep-22 12:32N 51°21' E 004°17'2 0.2
2016-Sep-22 04:32N 51°19' E 004°19'0 0.0
2016-Sep-22 03:22N 51°19' E 004°19'0 0.0
2016-Sep-22 00:21N 51°19' E 004°19'0 0.0
2016-Sep-21 23:24N 51°19' E 004°19'0 0.0
2016-Sep-21 22:20N 51°19' E 004°19'0 0.0
2016-Sep-21 19:28N 51°19' E 004°19'2 0.7
2016-Sep-21 16:34N 51°21' E 004°17'68 9.7
2016-Sep-21 09:34N 51°22' E 002°29'7 7.3
2016-Sep-21 08:33N 51°18' E 002°19'9916.5
2016-Sep-21 02:34N 50°21' E 000°11'23019.1
2016-Sep-20 14:33N 48°54' W 005°17'1615.8
2016-Sep-20 13:33N 48°45' W 005°37'41416.4
2016-Sep-19 12:15N 42°31' W 009°50'1116.1
2016-Sep-19 11:33N 42°19' W 009°50'3215.9
2016-Sep-19 09:33N 41°48' W 009°50'3216.0
2016-Sep-19 07:31N 41°15' W 009°50'1616.5
2016-Sep-19 06:31N 40°59' W 009°50'4916.4
2016-Sep-19 03:34N 40°10' W 009°51'1616.1
2016-Sep-19 02:34N 39°54' W 009°50'3216.0
2016-Sep-19 00:33N 39°22' W 009°52'7915.9
2016-Sep-18 19:33N 38°03' W 009°52'6416.0
2016-Sep-18 15:33N 36°59' W 009°55'1616.2
2016-Sep-18 14:33N 36°43' W 009°55'7016.0
2016-Sep-18 10:10N 35°32' W 009°58'24816.2
2016-Sep-17 18:50N 31°24' W 010°04'  
Track history (hours):
 
Tides and Currents Weather Stations Pressure Air Temp Water Temp Dewpoint Dewpoint Depression Visibility Wind Speed Wind Dir Waves Ship Positions

MSC Alexa

Last reported at 2016-Sep-26 15:33 UTC. Time now 2016-Sep-26 22:29 UTC.
Position N 55°24' E 014°40'.

Length 243 m; draft 9.9 m.

Type: Ship (hazmat cat A). MMSI: 356904000.

Date/timePositionNaut miles runAvg speedWind from/ knotsBaromVisibWave heightAir tempDewpointWater temp
2016-Sep-26 15:33N 55°24' E 014°40'3417.1
2016-Sep-26 13:33N 54°60' E 013°57'3417.2
2016-Sep-26 11:33N 54°49' E 013°00'4816.1
2016-Sep-26 08:33N 54°24' E 011°49'9012.7
2016-Sep-26 01:28N 55°48' E 010°48'1415.5
2016-Sep-26 00:33N 55°60' E 011°02'4916.2
2016-Sep-25 21:33N 56°41' E 011°48'6215.6
2016-Sep-25 17:33N 57°38' E 011°03'1616.4
2016-Sep-25 16:33N 57°48' E 010°38'1918.4
2016-Sep-25 15:33N 57°44' E 010°03'10217.0
2016-Sep-25 09:33N 56°43' E 007°32'3618.1
2016-Sep-25 07:33N 56°09' E 007°09'5417.8
2016-Sep-25 04:33N 55°19' E 006°37'6616.6
2016-Sep-25 00:33N 54°18' E 007°23'3215.8
2016-Sep-24 22:33N 53°52' E 007°53'1515.2
2016-Sep-24 21:33N 53°44' E 008°15'14 6.7
2016-Sep-24 19:31N 53°35' E 008°32'0 0.0
2016-Sep-24 18:31N 53°35' E 008°32'0 0.0
2016-Sep-24 17:33N 53°35' E 008°32'0 0.0
2016-Sep-24 16:33N 53°35' E 008°32'0 0.0
2016-Sep-24 14:32N 53°35' E 008°32'0 0.0
2016-Sep-24 12:31N 53°35' E 008°32'0 0.0
2016-Sep-24 10:33N 53°35' E 008°32'0 0.0
2016-Sep-24 09:33N 53°35' E 008°32'39 6.5
2016-Sep-24 03:33N 53°54' E 007°35'1313.3
2016-Sep-24 02:33N 53°52' E 007°13'1615.6
2016-Sep-24 01:33N 53°49' E 006°47'1717.1
2016-Sep-24 00:33N 53°45' E 006°19'8316.6
2016-Sep-23 19:33N 53°00' E 004°21'3718.6
2016-Sep-23 17:33N 52°27' E 003°52'1817.9
2016-Sep-23 16:32N 52°13' E 003°33'2117.0
2016-Sep-23 15:19N 51°54' E 003°21'2413.7
2016-Sep-23 13:33N 51°32' E 003°06'37 9.2
2016-Sep-23 09:33N 51°23' E 004°03'9 3.0
2016-Sep-23 06:32N 51°17' E 004°15'0 0.0
2016-Sep-23 04:31N 51°17' E 004°15'0 0.0
2016-Sep-23 03:31N 51°17' E 004°15'0 0.0
2016-Sep-23 02:33N 51°17' E 004°15'0 0.0
2016-Sep-23 01:33N 51°17' E 004°15'0 0.0
2016-Sep-23 00:29N 51°17' E 004°15'0 0.0
2016-Sep-22 23:32N 51°17' E 004°15'0 0.0
2016-Sep-22 20:31N 51°17' E 004°15'4 0.5
2016-Sep-22 12:32N 51°21' E 004°17'2 0.2
2016-Sep-22 04:32N 51°19' E 004°19'0 0.0
2016-Sep-22 03:22N 51°19' E 004°19'0 0.0
2016-Sep-22 00:21N 51°19' E 004°19'0 0.0
2016-Sep-21 23:24N 51°19' E 004°19'0 0.0
2016-Sep-21 22:20N 51°19' E 004°19'0 0.0
2016-Sep-21 19:28N 51°19' E 004°19'2 0.7
2016-Sep-21 16:34N 51°21' E 004°17'68 9.7
2016-Sep-21 09:34N 51°22' E 002°29'7 7.3
2016-Sep-21 08:33N 51°18' E 002°19'9916.5
2016-Sep-21 02:34N 50°21' E 000°11'23019.1
2016-Sep-20 14:33N 48°54' W 005°17'1615.8
2016-Sep-20 13:33N 48°45' W 005°37'41416.4
2016-Sep-19 12:15N 42°31' W 009°50'1116.1
2016-Sep-19 11:33N 42°19' W 009°50'3215.9
2016-Sep-19 09:33N 41°48' W 009°50'3216.0
2016-Sep-19 07:31N 41°15' W 009°50'1616.5
2016-Sep-19 06:31N 40°59' W 009°50'4916.4
2016-Sep-19 03:34N 40°10' W 009°51'1616.1
2016-Sep-19 02:34N 39°54' W 009°50'3216.0
2016-Sep-19 00:33N 39°22' W 009°52'7915.9
2016-Sep-18 19:33N 38°03' W 009°52'6416.0
2016-Sep-18 15:33N 36°59' W 009°55'1616.2
2016-Sep-18 14:33N 36°43' W 009°55'7016.0
2016-Sep-18 10:10N 35°32' W 009°58'24816.2
2016-Sep-17 18:50N 31°24' W 010°04'  

Dump ship's entire track history